createdAt,value
2019-02-22T00:02:05.734Z,98321.23
2019-02-22T00:04:33.723Z,98316.05
2019-02-22T00:07:01.759Z,98308.69
2019-02-22T00:09:29.561Z,98306.88
2019-02-22T00:11:57.582Z,98299.14
2019-02-22T00:14:25.630Z,98303.81
2019-02-22T00:16:53.566Z,98304.68
2019-02-22T00:19:21.577Z,98315.26
2019-02-22T00:21:49.637Z,98316.47
2019-02-22T00:24:17.572Z,98311.62
2019-02-22T00:26:45.381Z,98293.70
2019-02-22T00:29:13.660Z,98310.02
2019-02-22T00:31:41.961Z,98310.25
2019-02-22T00:34:09.915Z,98313.12
2019-02-22T00:36:37.942Z,98313.48
2019-02-22T00:39:06.140Z,98318.58
2019-02-22T00:41:35.275Z,98311.36
2019-02-22T00:44:03.435Z,98307.36
2019-02-22T00:46:31.316Z,98302.52
2019-02-22T00:48:59.510Z,98308.31
2019-02-22T00:51:27.783Z,98298.97
2019-02-22T00:53:55.606Z,98306.16
2019-02-22T00:56:23.588Z,98305.80
2019-02-22T00:58:52.547Z,98296.13
2019-02-22T01:01:20.565Z,98301.30
2019-02-22T01:03:49.537Z,98297.30
2019-02-22T01:06:17.314Z,98302.33
2019-02-22T01:08:45.210Z,98287.70
2019-02-22T01:11:13.038Z,98291.39
2019-02-22T01:13:40.991Z,98291.48
2019-02-22T01:16:09.094Z,98289.09
2019-02-22T01:18:37.351Z,98286.00
2019-02-22T01:21:05.202Z,98283.69
2019-02-22T01:23:33.005Z,98280.69
2019-02-22T01:26:00.966Z,98275.42
2019-02-22T01:28:30.096Z,98273.56
2019-02-22T01:30:58.206Z,98261.09
2019-02-22T01:33:26.232Z,98270.58
2019-02-22T01:35:54.037Z,98265.40
2019-02-22T01:38:22.131Z,98264.06
2019-02-22T01:40:50.039Z,98252.91
2019-02-22T01:43:18.141Z,98242.22
2019-02-22T01:45:46.085Z,98249.02
2019-02-22T01:48:14.096Z,98246.75
2019-02-22T01:50:42.279Z,98240.91
2019-02-22T01:53:10.400Z,98234.13
2019-02-22T01:55:38.325Z,98233.31
2019-02-22T01:58:06.278Z,98231.16
2019-02-22T02:00:34.155Z,98230.20
2019-02-22T02:03:02.263Z,98221.53
2019-02-22T02:05:30.320Z,98215.41
2019-02-22T02:07:58.572Z,98222.03
2019-02-22T02:10:26.325Z,98211.19
2019-02-22T02:12:54.451Z,98218.77
2019-02-22T02:15:22.371Z,98226.85
2019-02-22T02:17:50.451Z,98227.07
2019-02-22T02:20:18.429Z,98224.03
2019-02-22T02:22:46.666Z,98225.54
2019-02-22T02:25:14.888Z,98231.29
2019-02-22T02:27:42.836Z,98232.42
2019-02-22T02:30:11.049Z,98217.83
2019-02-22T02:32:39.142Z,98240.77
2019-02-22T02:35:07.280Z,98236.90
2019-02-22T02:37:35.484Z,98238.06
2019-02-22T02:40:04.129Z,98217.42
2019-02-22T02:42:32.257Z,98224.11
2019-02-22T02:45:00.576Z,98220.05
2019-02-22T02:47:28.797Z,98214.12
2019-02-22T02:49:56.892Z,98208.49
2019-02-22T02:52:25.115Z,98205.50
2019-02-22T02:54:53.161Z,98210.30
2019-02-22T02:57:21.271Z,98203.36
2019-02-22T02:59:49.389Z,98197.80
2019-02-22T03:02:28.956Z,98193.45
2019-02-22T03:04:56.855Z,98181.77
2019-02-22T03:07:44.864Z,98167.97
2019-02-22T03:10:12.930Z,98155.03
2019-02-22T03:12:40.943Z,98145.43
2019-02-22T03:15:10.048Z,98139.16
2019-02-22T03:17:38.382Z,98134.23
2019-02-22T03:20:06.204Z,98136.86
2019-02-22T03:22:34.272Z,98133.50
2019-02-22T03:25:02.190Z,98131.06
2019-02-22T03:27:30.155Z,98130.84
2019-02-22T03:29:58.342Z,98160.78
2019-02-22T03:32:26.406Z,98176.98
2019-02-22T03:34:54.297Z,98169.52
2019-02-22T03:37:22.570Z,98181.83
2019-02-22T03:39:50.682Z,98173.88
2019-02-22T03:42:18.609Z,98171.70
2019-02-22T03:44:46.929Z,98175.71
2019-02-22T03:47:14.882Z,98171.40
2019-02-22T03:49:43.862Z,98168.28
2019-02-22T03:52:24.887Z,98153.80
2019-02-22T03:54:52.958Z,98164.80
2019-02-22T03:57:21.062Z,98155.12
2019-02-22T03:59:51.174Z,98158.42
2019-02-22T04:02:19.009Z,98161.05
2019-02-22T04:04:47.117Z,98160.67
2019-02-22T04:07:14.991Z,98138.31
2019-02-22T04:09:42.716Z,98136.48
2019-02-22T04:12:10.750Z,98139.41
2019-02-22T04:14:39.050Z,98142.20
2019-02-22T04:17:07.137Z,98146.14
2019-02-22T04:19:35.123Z,98143.48
2019-02-22T04:22:03.318Z,98142.80
2019-02-22T04:24:31.214Z,98139.25
2019-02-22T04:26:59.159Z,98140.00
2019-02-22T04:29:27.177Z,98143.83
2019-02-22T04:31:55.121Z,98133.33
2019-02-22T04:34:22.916Z,98123.73
2019-02-22T04:36:50.972Z,98124.11
2019-02-22T04:39:18.984Z,98125.83
2019-02-22T04:41:57.804Z,98133.47
2019-02-22T04:44:17.290Z,98136.63
2019-02-22T04:46:45.180Z,98137.48
2019-02-22T04:49:13.324Z,98124.66
2019-02-22T04:51:41.350Z,98130.62
2019-02-22T04:54:09.165Z,98136.29
2019-02-22T04:56:37.054Z,98133.70
2019-02-22T04:59:05.157Z,98139.33
2019-02-22T05:01:33.253Z,98146.68
2019-02-22T05:04:01.514Z,98145.30
2019-02-22T05:06:29.496Z,98153.47
2019-02-22T05:08:57.632Z,98153.20
2019-02-22T05:13:53.979Z,98159.92
2019-02-22T05:16:21.910Z,98163.59
2019-02-22T05:18:49.804Z,98160.63
2019-02-22T05:21:17.741Z,98174.13
2019-02-22T05:23:45.528Z,98187.27
2019-02-22T05:26:13.478Z,98200.27
2019-02-22T05:28:41.348Z,98211.73
2019-02-22T05:31:09.407Z,98216.19
2019-02-22T05:33:37.263Z,98226.17
2019-02-22T05:36:05.162Z,98225.54
2019-02-22T05:38:33.214Z,98221.78
2019-02-22T05:41:01.259Z,98220.19
2019-02-22T05:43:29.486Z,98223.60
2019-02-22T05:45:57.659Z,98223.38
2019-02-22T05:48:27.206Z,98230.81
2019-02-22T05:50:56.829Z,98240.91
2019-02-22T05:53:24.888Z,98241.14
2019-02-22T05:55:52.751Z,98237.80
2019-02-22T05:58:20.636Z,98225.56
2019-02-22T06:00:50.245Z,98233.20
2019-02-22T06:03:18.228Z,98231.09
2019-02-22T06:05:47.633Z,98241.89
2019-02-22T06:08:15.858Z,98246.14
2019-02-22T06:10:43.808Z,98248.68
2019-02-22T06:13:11.792Z,98251.28
2019-02-22T06:15:39.894Z,98243.39
2019-02-22T06:18:07.939Z,98245.65
2019-02-22T06:20:36.079Z,98241.15
2019-02-22T06:23:04.340Z,98251.52
2019-02-22T06:25:32.312Z,98242.52
2019-02-22T06:28:00.262Z,98243.98
2019-02-22T06:30:28.370Z,98231.98
2019-02-22T06:32:56.281Z,98228.20
2019-02-22T06:35:24.128Z,98233.24
2019-02-22T06:37:52.093Z,98242.25
2019-02-22T06:40:21.690Z,98252.59
2019-02-22T06:42:50.094Z,98249.66
2019-02-22T06:45:18.169Z,98260.11
2019-02-22T06:47:46.174Z,98262.95
2019-02-22T06:50:15.970Z,98268.67
2019-02-22T06:52:44.070Z,98267.77
2019-02-22T06:55:12.258Z,98268.28
2019-02-22T06:57:40.057Z,98267.50
2019-02-22T07:00:09.020Z,98258.16
2019-02-22T07:02:36.931Z,98253.33
2019-02-22T07:05:04.942Z,98254.53
2019-02-22T07:07:32.839Z,98263.37
2019-02-22T07:10:00.907Z,98265.61
2019-02-22T07:12:32.931Z,98256.71
2019-02-22T07:15:00.973Z,98253.95
2019-02-22T07:17:29.032Z,98248.16
2019-02-22T07:19:57.363Z,98256.02
2019-02-22T07:22:25.455Z,98248.45
2019-02-22T07:24:53.327Z,98259.35
2019-02-22T07:27:21.218Z,98268.10
2019-02-22T07:29:49.177Z,98283.70
2019-02-22T07:32:17.162Z,98285.16
2019-02-22T07:34:44.995Z,98281.31
2019-02-22T07:37:12.886Z,98284.90
2019-02-22T07:39:40.733Z,98282.97
2019-02-22T07:42:08.746Z,98287.73
2019-02-22T07:44:36.751Z,98277.61
2019-02-22T07:47:04.945Z,98285.41
2019-02-22T07:49:32.996Z,98282.65
2019-02-22T07:52:01.014Z,98282.12
2019-02-22T07:54:29.004Z,98272.29
2019-02-22T07:56:57.146Z,98282.53
2019-02-22T07:59:25.257Z,98290.19
2019-02-22T08:01:53.276Z,98284.23
2019-02-22T08:04:21.340Z,98291.13
2019-02-22T08:06:49.343Z,98304.38
2019-02-22T08:09:17.088Z,98302.06
2019-02-22T08:11:47.412Z,98310.13
2019-02-22T08:14:15.060Z,98313.76
2019-02-22T08:16:43.136Z,98318.78
2019-02-22T08:19:11.408Z,98320.84
2019-02-22T08:21:39.672Z,98330.03
2019-02-22T08:24:07.555Z,98332.87
2019-02-22T08:26:35.464Z,98332.75
2019-02-22T08:29:03.938Z,98325.98
2019-02-22T08:31:31.954Z,98332.02
2019-02-22T08:33:59.781Z,98326.39
2019-02-22T08:36:27.833Z,98318.86
2019-02-22T08:38:55.829Z,98311.30
2019-02-22T08:41:23.879Z,98306.27
2019-02-22T08:43:52.070Z,98300.86
2019-02-22T08:46:20.323Z,98306.25
2019-02-22T08:48:48.180Z,98308.33
2019-02-22T08:51:16.366Z,98307.33
2019-02-22T08:53:44.736Z,98303.11
2019-02-22T08:56:12.598Z,98300.76
2019-02-22T08:58:40.595Z,98306.22
2019-02-22T09:01:08.660Z,98311.38
2019-02-22T09:03:36.779Z,98314.34
2019-02-22T09:06:04.973Z,98313.17
2019-02-22T09:08:32.985Z,98307.03
2019-02-22T09:11:01.040Z,98311.95
2019-02-22T09:13:29.335Z,98316.30
2019-02-22T09:15:57.623Z,98311.26
2019-02-22T09:18:25.556Z,98317.03
2019-02-22T09:20:53.307Z,98319.14
2019-02-22T09:23:21.178Z,98331.77
2019-02-22T09:25:49.127Z,98340.73
2019-02-22T09:28:17.130Z,98335.18
2019-02-22T09:30:45.020Z,98333.98
2019-02-22T09:33:13.065Z,98340.23
2019-02-22T09:35:41.028Z,98336.70
2019-02-22T09:38:08.900Z,98341.55
2019-02-22T09:40:37.090Z,98351.41
2019-02-22T09:43:04.922Z,98339.30
2019-02-22T09:45:32.798Z,98343.03
2019-02-22T09:48:00.881Z,98343.84
2019-02-22T09:50:28.717Z,98345.63
2019-02-22T09:52:56.839Z,98347.27
2019-02-22T09:55:24.662Z,98355.06
2019-02-22T09:57:52.566Z,98342.30
2019-02-22T10:00:20.455Z,98345.63
2019-02-22T10:02:48.411Z,98353.08
2019-02-22T10:05:16.613Z,98346.87
2019-02-22T10:07:44.641Z,98349.00
2019-02-22T10:10:12.954Z,98346.02
2019-02-22T10:12:41.121Z,98347.49
2019-02-22T10:15:09.084Z,98349.68
2019-02-22T10:17:37.023Z,98355.83
2019-02-22T10:20:05.387Z,98360.98
2019-02-22T10:22:33.325Z,98366.99
2019-02-22T10:25:01.390Z,98369.41
2019-02-22T10:27:29.462Z,98355.37
2019-02-22T10:29:57.568Z,98364.69
2019-02-22T10:32:25.520Z,98369.89
2019-02-22T10:34:53.465Z,98372.17
2019-02-22T10:37:21.756Z,98369.30
2019-02-22T10:39:49.857Z,98373.48
2019-02-22T10:42:17.923Z,98364.89
2019-02-22T10:44:45.787Z,98363.40
2019-02-22T10:47:13.836Z,98359.23
2019-02-22T10:49:41.859Z,98363.41
2019-02-22T10:52:09.979Z,98366.93
2019-02-22T10:54:38.034Z,98355.80
2019-02-22T10:57:06.251Z,98355.98
2019-02-22T10:59:34.204Z,98349.23
2019-02-22T11:02:02.306Z,98361.09
2019-02-22T11:04:30.305Z,98356.42
2019-02-22T11:06:58.393Z,98352.31
2019-02-22T11:09:26.434Z,98339.89
2019-02-22T11:11:54.412Z,98360.30
2019-02-22T11:14:29.147Z,98357.44
2019-02-22T11:16:52.298Z,98350.18
2019-02-22T11:19:20.229Z,98357.48
2019-02-22T11:21:48.416Z,98346.00
2019-02-22T11:24:16.225Z,98344.02
2019-02-22T11:26:44.177Z,98343.41
2019-02-22T11:29:12.178Z,98350.65
2019-02-22T11:31:40.040Z,98345.92
2019-02-22T11:34:08.264Z,98347.25
2019-02-22T11:36:36.020Z,98340.69
2019-02-22T11:39:04.708Z,98343.44
2019-02-22T11:41:34.653Z,98350.56
2019-02-22T11:44:02.606Z,98344.09
2019-02-22T11:46:30.576Z,98343.86
2019-02-22T11:48:58.518Z,98344.97
2019-02-22T11:51:26.764Z,98337.36
2019-02-22T11:53:55.011Z,98343.17
2019-02-22T11:56:22.912Z,98349.91
2019-02-22T11:58:50.926Z,98339.33
2019-02-22T12:01:18.811Z,98334.89
2019-02-22T12:03:47.093Z,98338.59
2019-02-22T12:06:14.684Z,98335.88
2019-02-22T12:08:42.959Z,98347.47
2019-02-22T12:11:10.465Z,98338.77
2019-02-22T12:13:39.714Z,98345.23
2019-02-22T12:16:07.292Z,98341.94
2019-02-22T12:18:36.623Z,98353.77
2019-02-22T12:21:04.295Z,98356.41
2019-02-22T12:23:31.870Z,98351.07
2019-02-22T12:25:59.507Z,98353.08
2019-02-22T12:28:27.125Z,98361.11
2019-02-22T12:30:54.709Z,98353.24
2019-02-22T12:33:22.319Z,98372.07
2019-02-22T12:35:49.999Z,98365.26
2019-02-22T12:38:17.581Z,98363.34
2019-02-22T12:40:45.177Z,98368.27
2019-02-22T12:43:12.936Z,98374.09
2019-02-22T12:45:40.548Z,98376.48
2019-02-22T12:48:08.105Z,98362.53
2019-02-22T12:50:35.634Z,98376.84
2019-02-22T12:53:03.255Z,98381.59
2019-02-22T12:55:30.857Z,98383.38
2019-02-22T12:57:58.451Z,98386.54
2019-02-22T13:00:26.041Z,98387.95
2019-02-22T13:03:01.616Z,98380.80
2019-02-22T13:05:23.480Z,98391.34
2019-02-22T13:07:52.661Z,98395.34
2019-02-22T13:10:20.676Z,98401.23
2019-02-22T13:12:48.374Z,98397.85
2019-02-22T13:15:16.060Z,98399.98
2019-02-22T13:17:43.843Z,98402.82
2019-02-22T13:20:12.200Z,98399.67
2019-02-22T13:22:40.382Z,98393.23
2019-02-22T13:25:08.494Z,98393.11
2019-02-22T13:27:36.731Z,98402.41
2019-02-22T13:30:05.008Z,98402.30
2019-02-22T13:32:32.999Z,98406.69
2019-02-22T13:35:02.831Z,98413.74
2019-02-22T13:37:30.752Z,98422.49
2019-02-22T13:39:58.832Z,98435.80
2019-02-22T13:42:26.587Z,98460.72
2019-02-22T13:44:54.219Z,98431.92
2019-02-22T13:47:21.815Z,98439.97
2019-02-22T13:49:49.377Z,98441.84
2019-02-22T13:52:17.028Z,98444.79
2019-02-22T13:54:44.637Z,98449.36
2019-02-22T13:57:12.337Z,98438.95
2019-02-22T13:59:40.092Z,98450.91
2019-02-22T14:02:07.917Z,98452.14
2019-02-22T14:04:35.635Z,98458.66
2019-02-22T14:07:04.876Z,98470.34
2019-02-22T14:09:33.045Z,98469.19
2019-02-22T14:12:01.167Z,98468.26
2019-02-22T14:14:29.290Z,98469.77
2019-02-22T14:16:57.363Z,98475.72
2019-02-22T14:19:25.576Z,98487.57
2019-02-22T14:21:53.826Z,98484.94
2019-02-22T14:24:21.915Z,98496.02
2019-02-22T14:26:51.121Z,98494.82
2019-02-22T14:29:19.577Z,98502.23
2019-02-22T14:31:47.452Z,98499.39
2019-02-22T14:34:15.539Z,98500.84
2019-02-22T14:36:43.804Z,98515.91
2019-02-22T14:39:12.341Z,98524.78
2019-02-22T14:41:40.381Z,98524.00
2019-02-22T14:44:08.235Z,98529.73
2019-02-22T14:46:36.223Z,98529.66
2019-02-22T14:49:04.338Z,98538.55
2019-02-22T14:51:32.318Z,98549.20
2019-02-22T14:54:00.173Z,98560.42
2019-02-22T14:56:28.138Z,98551.07
2019-02-22T14:58:56.105Z,98577.68
2019-02-22T15:01:24.301Z,98582.16
2019-02-22T15:03:52.278Z,98595.69
2019-02-22T15:06:20.439Z,98612.88
2019-02-22T15:08:48.611Z,98602.50
2019-02-22T15:11:16.817Z,98609.45
2019-02-22T15:13:44.669Z,98597.52
2019-02-22T15:16:38.390Z,98615.95
2019-02-22T15:19:06.428Z,98631.43
2019-02-22T15:21:35.990Z,98625.73
2019-02-22T15:24:03.870Z,98633.06
2019-02-22T15:26:31.929Z,98631.96
2019-02-22T15:28:59.827Z,98629.37
2019-02-22T15:31:35.868Z,98620.72
2019-02-22T15:33:57.441Z,98636.37
2019-02-22T15:36:25.448Z,98651.42
2019-02-22T15:38:53.564Z,98649.06
2019-02-22T15:41:21.600Z,98660.17
2019-02-22T15:43:49.637Z,98655.55
2019-02-22T15:46:17.827Z,98647.45
2019-02-22T15:48:45.530Z,98641.30
2019-02-22T15:51:13.590Z,98664.58
2019-02-22T15:53:43.928Z,98665.77
2019-02-22T15:56:11.759Z,98672.13
2019-02-22T15:58:39.661Z,98672.44
2019-02-22T16:01:07.794Z,98673.30
2019-02-22T16:04:07.570Z,98677.84
2019-02-22T16:06:35.501Z,98677.48
2019-02-22T16:09:06.252Z,98684.52
2019-02-22T16:11:36.370Z,98685.27
2019-02-22T16:14:07.236Z,98686.73
2019-02-22T16:16:35.297Z,98690.20
2019-02-22T16:19:03.297Z,98696.35
2019-02-22T16:21:31.330Z,98698.73
2019-02-22T16:23:59.300Z,98708.19
2019-02-22T16:26:29.190Z,98711.08
2019-02-22T16:28:57.323Z,98708.48
2019-02-22T16:31:25.386Z,98720.87
2019-02-22T16:33:53.183Z,98711.61
2019-02-22T16:36:21.448Z,98720.84
2019-02-22T16:38:49.420Z,98727.73
2019-02-22T16:41:17.264Z,98723.67
2019-02-22T16:43:45.117Z,98725.67
2019-02-22T16:46:14.132Z,98713.25
2019-02-22T16:48:41.868Z,98723.23
2019-02-22T16:51:09.767Z,98720.37
2019-02-22T16:53:38.689Z,98727.02
2019-02-22T16:56:06.710Z,98724.88
2019-02-22T16:58:34.761Z,98729.56
2019-02-22T17:01:02.719Z,98736.63
2019-02-22T17:03:32.113Z,98736.48
2019-02-22T17:06:00.156Z,98747.05
2019-02-22T17:08:28.430Z,98741.05
2019-02-22T17:10:56.401Z,98758.80
2019-02-22T17:13:24.504Z,98758.56
2019-02-22T17:15:52.262Z,98762.18
2019-02-22T17:18:20.266Z,98765.13
2019-02-22T17:20:48.340Z,98770.31
2019-02-22T17:23:16.391Z,98770.02
2019-02-22T17:25:44.455Z,98771.38
2019-02-22T17:28:12.342Z,98779.84
2019-02-22T17:30:40.479Z,98782.70
2019-02-22T17:33:08.633Z,98791.84
2019-02-22T17:35:36.938Z,98807.16
2019-02-22T17:38:05.243Z,98815.41
2019-02-22T17:40:33.591Z,98812.55
2019-02-22T17:43:01.465Z,98825.63
2019-02-22T17:45:29.342Z,98824.89
2019-02-22T17:47:57.319Z,98832.73
2019-02-22T17:50:25.463Z,98830.09
2019-02-22T17:52:53.456Z,98840.44
2019-02-22T17:55:21.614Z,98851.48
2019-02-22T17:57:49.337Z,98852.47
2019-02-22T18:00:19.292Z,98867.39
2019-02-22T18:02:47.434Z,98860.84
2019-02-22T18:05:15.473Z,98875.70
2019-02-22T18:07:44.286Z,98879.47
2019-02-22T18:10:12.141Z,98888.18
2019-02-22T18:12:40.333Z,98895.37
2019-02-22T18:15:08.361Z,98906.34
2019-02-22T18:17:36.259Z,98910.94
2019-02-22T18:20:04.378Z,98910.48
2019-02-22T18:22:32.425Z,98913.72
2019-02-22T18:25:00.408Z,98904.08
2019-02-22T18:27:28.299Z,98916.09
2019-02-22T18:29:57.216Z,98923.55
2019-02-22T18:32:25.185Z,98926.82
2019-02-22T18:34:52.924Z,98923.14
2019-02-22T18:37:21.135Z,98933.17
2019-02-22T18:39:49.143Z,98932.41
2019-02-22T18:42:17.122Z,98947.02
2019-02-22T18:44:44.929Z,98943.47
2019-02-22T18:47:19.408Z,98947.22
2019-02-22T18:49:42.901Z,98946.00
2019-02-22T18:52:11.067Z,98959.38
2019-02-22T18:54:38.961Z,98965.55
2019-02-22T18:57:06.895Z,98968.45
2019-02-22T18:59:34.737Z,98978.80
2019-02-22T19:02:02.904Z,98977.67
2019-02-22T19:04:31.057Z,98979.25
2019-02-22T19:06:59.080Z,98979.47
2019-02-22T19:09:27.053Z,98984.92
2019-02-22T19:11:55.076Z,99003.42
2019-02-22T19:14:22.918Z,99006.47
2019-02-22T19:16:50.877Z,99009.26
2019-02-22T19:19:18.994Z,99027.33
2019-02-22T19:21:46.946Z,99024.84
2019-02-22T19:24:16.570Z,99030.66
2019-02-22T19:26:44.656Z,99032.47
2019-02-22T19:29:12.651Z,99043.00
2019-02-22T19:31:40.552Z,99046.63
2019-02-22T19:34:08.375Z,99051.97
2019-02-22T19:36:36.137Z,99059.50
2019-02-22T19:39:05.155Z,99068.77
2019-02-22T19:41:35.176Z,99074.51
2019-02-22T19:44:03.121Z,99076.64
2019-02-22T19:46:31.028Z,99081.25
2019-02-22T19:48:59.036Z,99094.02
2019-02-22T19:51:27.148Z,99090.70
2019-02-22T19:53:55.026Z,99100.55
2019-02-22T19:56:23.057Z,99100.20
2019-02-22T19:58:50.724Z,99108.09
2019-02-22T20:01:18.555Z,99110.45
2019-02-22T20:03:47.899Z,99113.19
2019-02-22T20:06:16.045Z,99127.78
2019-02-22T20:08:44.013Z,99136.20
2019-02-22T20:11:12.106Z,99130.56
2019-02-22T20:13:39.899Z,99140.41
2019-02-22T20:16:07.697Z,99145.78
2019-02-22T20:18:36.742Z,99153.73
2019-02-22T20:21:04.672Z,99156.05
2019-02-22T20:23:32.995Z,99165.22
2019-02-22T20:26:01.017Z,99184.59
2019-02-22T20:28:29.053Z,99177.30
2019-02-22T20:30:56.918Z,99193.05
2019-02-22T20:33:25.993Z,99206.20
2019-02-22T20:35:53.877Z,99207.08
2019-02-22T20:38:21.677Z,99212.76
2019-02-22T20:40:49.701Z,99211.09
2019-02-22T20:43:17.667Z,99213.30
2019-02-22T20:45:45.530Z,99209.46
2019-02-22T20:48:13.410Z,99219.17
2019-02-22T20:50:41.234Z,99222.61
2019-02-22T20:53:09.142Z,99222.26
2019-02-22T20:55:37.079Z,99224.98
2019-02-22T20:58:05.078Z,99231.14
2019-02-22T21:00:33.020Z,99228.48
2019-02-22T21:03:00.902Z,99233.85
2019-02-22T21:05:28.880Z,99239.19
2019-02-22T21:07:56.717Z,99240.07
2019-02-22T21:10:24.865Z,99237.02
2019-02-22T21:12:52.667Z,99245.00
2019-02-22T21:15:20.538Z,99250.69
2019-02-22T21:17:48.840Z,99262.50
2019-02-22T21:20:16.938Z,99258.56
2019-02-22T21:22:44.847Z,99271.77
2019-02-22T21:25:13.895Z,99283.20
2019-02-22T21:27:41.998Z,99288.53
2019-02-22T21:30:12.427Z,99286.88
2019-02-22T21:32:40.376Z,99295.34
2019-02-22T21:35:08.272Z,99299.22
2019-02-22T21:37:37.249Z,99294.91
2019-02-22T21:40:05.742Z,99311.22
2019-02-22T21:42:33.769Z,99315.59
2019-02-22T21:45:01.894Z,99322.27
2019-02-22T21:47:30.611Z,99324.94
2019-02-22T21:49:58.549Z,99328.43
2019-02-22T21:52:26.447Z,99331.02
2019-02-22T21:54:54.259Z,99342.43
2019-02-22T21:57:22.216Z,99348.55
2019-02-22T21:59:49.902Z,99351.65
2019-02-22T22:02:17.957Z,99350.83
2019-02-22T22:04:46.030Z,99350.96
2019-02-22T22:07:13.957Z,99353.15
2019-02-22T22:09:43.004Z,99363.63
2019-02-22T22:12:11.105Z,99361.89
2019-02-22T22:14:39.165Z,99367.13
2019-02-22T22:17:07.227Z,99371.97
2019-02-22T22:19:35.276Z,99361.92
2019-02-22T22:22:03.394Z,99379.36
2019-02-22T22:24:33.020Z,99381.11
2019-02-22T22:27:00.887Z,99398.65
2019-02-22T22:29:28.782Z,99393.44
2019-02-22T22:31:56.670Z,99391.74
2019-02-22T22:34:24.598Z,99390.92
2019-02-22T22:36:52.562Z,99402.30
2019-02-22T22:39:20.531Z,99408.39
2019-02-22T22:41:48.400Z,99425.88
2019-02-22T22:44:16.388Z,99422.41
2019-02-22T22:46:44.404Z,99411.50
2019-02-22T22:49:12.547Z,99410.62
2019-02-22T22:51:40.403Z,99413.71
2019-02-22T22:54:08.321Z,99428.53
2019-02-22T22:56:36.319Z,99427.66
2019-02-22T22:59:04.210Z,99420.23
2019-02-22T23:01:34.188Z,99427.64
2019-02-22T23:04:02.392Z,99437.66
2019-02-22T23:06:30.391Z,99452.03
2019-02-22T23:08:58.399Z,99450.72
2019-02-22T23:11:26.421Z,99459.89
2019-02-22T23:13:54.247Z,99457.25
2019-02-22T23:16:22.110Z,99465.10
2019-02-22T23:19:01.124Z,99468.13
2019-02-22T23:21:20.178Z,99474.21
2019-02-22T23:23:47.983Z,99485.96
2019-02-22T23:26:15.849Z,99488.56
2019-02-22T23:28:43.713Z,99493.38
2019-02-22T23:31:11.777Z,99495.53
2019-02-22T23:33:39.999Z,99503.38
2019-02-22T23:36:08.033Z,99511.23
2019-02-22T23:38:36.039Z,99510.77
2019-02-22T23:41:05.097Z,99510.73
2019-02-22T23:43:32.963Z,99512.45
2019-02-22T23:46:01.041Z,99508.95
2019-02-22T23:48:28.945Z,99512.44
2019-02-22T23:50:56.984Z,99511.13
2019-02-22T23:53:24.876Z,99507.17
2019-02-22T23:55:52.783Z,99521.52
2019-02-22T23:58:21.011Z,99507.50
